sensor_id;sensor_type;location;lat;lon;timestamp;P1;durP1;ratioP1;P2;durP2;ratioP2
23668;SDS011;12011;47.422;15.018;2023-12-20T00:02:26;24.57;;;23.76;;
23668;SDS011;12011;47.422;15.018;2023-12-20T00:05:04;25.77;;;24.79;;
23668;SDS011;12011;47.422;15.018;2023-12-20T00:07:36;23.67;;;22.67;;
23668;SDS011;12011;47.422;15.018;2023-12-20T00:10:05;23.15;;;22.15;;
23668;SDS011;12011;47.422;15.018;2023-12-20T00:12:48;24.96;;;23.44;;
23668;SDS011;12011;47.422;15.018;2023-12-20T00:15:18;29.02;;;25.52;;
23668;SDS011;12011;47.422;15.018;2023-12-20T00:17:49;28.25;;;24.99;;
23668;SDS011;12011;47.422;15.018;2023-12-20T00:20:19;22.33;;;20.53;;
23668;SDS011;12011;47.422;15.018;2023-12-20T00:22:52;22.33;;;20.58;;
23668;SDS011;12011;47.422;15.018;2023-12-20T00:25:28;23.27;;;21.33;;
23668;SDS011;12011;47.422;15.018;2023-12-20T00:28:02;23.17;;;21.19;;
23668;SDS011;12011;47.422;15.018;2023-12-20T00:30:36;22.59;;;20.62;;
23668;SDS011;12011;47.422;15.018;2023-12-20T00:33:07;25.10;;;23.01;;
23668;SDS011;12011;47.422;15.018;2023-12-20T00:35:44;24.33;;;22.94;;
23668;SDS011;12011;47.422;15.018;2023-12-20T00:38:14;24.91;;;22.71;;
23668;SDS011;12011;47.422;15.018;2023-12-20T00:40:44;22.50;;;21.01;;
23668;SDS011;12011;47.422;15.018;2023-12-20T00:43:22;22.80;;;21.50;;
23668;SDS011;12011;47.422;15.018;2023-12-20T00:45:53;22.27;;;21.37;;
23668;SDS011;12011;47.422;15.018;2023-12-20T00:48:31;21.99;;;21.03;;
23668;SDS011;12011;47.422;15.018;2023-12-20T00:51:06;22.52;;;21.36;;
23668;SDS011;12011;47.422;15.018;2023-12-20T00:53:39;21.48;;;20.76;;
23668;SDS011;12011;47.422;15.018;2023-12-20T00:58:54;20.87;;;20.09;;
23668;SDS011;12011;47.422;15.018;2023-12-20T01:01:33;17.72;;;17.18;;
23668;SDS011;12011;47.422;15.018;2023-12-20T01:04:24;16.69;;;15.99;;
23668;SDS011;12011;47.422;15.018;2023-12-20T01:07:07;18.56;;;18.08;;
23668;SDS011;12011;47.422;15.018;2023-12-20T01:09:40;22.59;;;21.69;;
23668;SDS011;12011;47.422;15.018;2023-12-20T01:15:35;21.50;;;20.67;;
23668;SDS011;12011;47.422;15.018;2023-12-20T03:10:12;10.01;;;9.77;;
23668;SDS011;12011;47.422;15.018;2023-12-20T03:12:50;10.12;;;9.79;;
23668;SDS011;12011;47.422;15.018;2023-12-20T03:15:24;10.79;;;10.48;;
23668;SDS011;12011;47.422;15.018;2023-12-20T03:17:55;12.94;;;12.61;;
23668;SDS011;12011;47.422;15.018;2023-12-20T03:20:35;12.80;;;12.40;;
23668;SDS011;12011;47.422;15.018;2023-12-20T03:23:12;12.71;;;12.30;;
23668;SDS011;12011;47.422;15.018;2023-12-20T03:25:47;12.63;;;12.17;;
23668;SDS011;12011;47.422;15.018;2023-12-20T03:28:21;12.26;;;11.82;;
23668;SDS011;12011;47.422;15.018;2023-12-20T03:30:59;12.11;;;11.70;;
23668;SDS011;12011;47.422;15.018;2023-12-20T03:33:30;12.25;;;11.89;;
23668;SDS011;12011;47.422;15.018;2023-12-20T03:36:06;12.61;;;12.10;;
23668;SDS011;12011;47.422;15.018;2023-12-20T03:38:38;13.09;;;12.42;;
23668;SDS011;12011;47.422;15.018;2023-12-20T03:41:12;12.40;;;11.96;;
23668;SDS011;12011;47.422;15.018;2023-12-20T03:43:48;12.74;;;12.20;;
23668;SDS011;12011;47.422;15.018;2023-12-20T03:46:18;13.35;;;12.97;;
23668;SDS011;12011;47.422;15.018;2023-12-20T03:48:50;16.10;;;15.64;;
23668;SDS011;12011;47.422;15.018;2023-12-20T03:51:24;15.47;;;14.93;;
23668;SDS011;12011;47.422;15.018;2023-12-20T03:54:12;15.24;;;14.79;;
23668;SDS011;12011;47.422;15.018;2023-12-20T03:56:50;14.98;;;14.56;;
23668;SDS011;12011;47.422;15.018;2023-12-20T03:59:25;15.49;;;14.86;;
23668;SDS011;12011;47.422;15.018;2023-12-20T04:01:59;14.87;;;14.25;;
23668;SDS011;12011;47.422;15.018;2023-12-20T04:04:35;14.98;;;14.28;;
23668;SDS011;12011;47.422;15.018;2023-12-20T04:07:12;14.53;;;13.87;;
23668;SDS011;12011;47.422;15.018;2023-12-20T04:09:42;14.67;;;13.78;;
23668;SDS011;12011;47.422;15.018;2023-12-20T04:12:23;13.82;;;13.23;;
23668;SDS011;12011;47.422;15.018;2023-12-20T04:14:59;14.38;;;13.95;;
23668;SDS011;12011;47.422;15.018;2023-12-20T04:17:42;15.42;;;14.68;;
23668;SDS011;12011;47.422;15.018;2023-12-20T04:20:14;14.97;;;14.36;;
23668;SDS011;12011;47.422;15.018;2023-12-20T04:22:50;15.41;;;14.72;;
23668;SDS011;12011;47.422;15.018;2023-12-20T04:25:24;13.90;;;13.13;;
23668;SDS011;12011;47.422;15.018;2023-12-20T04:28:04;13.84;;;13.23;;
23668;SDS011;12011;47.422;15.018;2023-12-20T04:30:35;12.64;;;12.18;;
23668;SDS011;12011;47.422;15.018;2023-12-20T04:33:07;11.98;;;11.41;;
23668;SDS011;12011;47.422;15.018;2023-12-20T04:35:40;12.24;;;11.83;;
23668;SDS011;12011;47.422;15.018;2023-12-20T04:38:12;12.16;;;11.77;;
23668;SDS011;12011;47.422;15.018;2023-12-20T04:40:43;11.10;;;10.72;;
23668;SDS011;12011;47.422;15.018;2023-12-20T04:43:17;11.34;;;10.95;;
23668;SDS011;12011;47.422;15.018;2023-12-20T04:45:51;11.60;;;11.23;;
23668;SDS011;12011;47.422;15.018;2023-12-20T04:48:22;10.98;;;10.66;;
23668;SDS011;12011;47.422;15.018;2023-12-20T04:51:01;11.14;;;10.87;;
23668;SDS011;12011;47.422;15.018;2023-12-20T04:53:33;10.80;;;10.54;;
23668;SDS011;12011;47.422;15.018;2023-12-20T04:56:06;12.35;;;12.03;;
23668;SDS011;12011;47.422;15.018;2023-12-20T04:58:42;15.82;;;15.15;;
23668;SDS011;12011;47.422;15.018;2023-12-20T05:01:20;17.71;;;17.12;;
23668;SDS011;12011;47.422;15.018;2023-12-20T05:03:51;17.30;;;16.61;;
23668;SDS011;12011;47.422;15.018;2023-12-20T05:06:24;17.58;;;16.79;;
23668;SDS011;12011;47.422;15.018;2023-12-20T05:08:59;17.58;;;16.75;;
23668;SDS011;12011;47.422;15.018;2023-12-20T05:11:43;17.83;;;16.96;;
23668;SDS011;12011;47.422;15.018;2023-12-20T05:14:16;15.39;;;14.96;;
23668;SDS011;12011;47.422;15.018;2023-12-20T05:16:47;13.54;;;13.09;;
23668;SDS011;12011;47.422;15.018;2023-12-20T05:19:19;14.29;;;13.65;;
23668;SDS011;12011;47.422;15.018;2023-12-20T05:21:52;14.09;;;13.65;;
23668;SDS011;12011;47.422;15.018;2023-12-20T05:24:24;13.42;;;12.94;;
23668;SDS011;12011;47.422;15.018;2023-12-20T05:26:53;11.63;;;11.43;;
23668;SDS011;12011;47.422;15.018;2023-12-20T05:29:25;10.67;;;10.62;;
23668;SDS011;12011;47.422;15.018;2023-12-20T05:31:55;10.42;;;10.36;;
23668;SDS011;12011;47.422;15.018;2023-12-20T05:34:27;10.13;;;10.08;;
23668;SDS011;12011;47.422;15.018;2023-12-20T05:36:57;10.69;;;10.64;;
23668;SDS011;12011;47.422;15.018;2023-12-20T05:39:27;10.66;;;10.60;;
23668;SDS011;12011;47.422;15.018;2023-12-20T05:41:56;9.88;;;9.83;;
23668;SDS011;12011;47.422;15.018;2023-12-20T05:44:28;10.01;;;9.95;;
23668;SDS011;12011;47.422;15.018;2023-12-20T05:46:58;8.78;;;8.68;;
23668;SDS011;12011;47.422;15.018;2023-12-20T05:49:27;9.40;;;9.31;;
23668;SDS011;12011;47.422;15.018;2023-12-20T05:51:57;11.61;;;11.41;;
23668;SDS011;12011;47.422;15.018;2023-12-20T05:54:26;11.92;;;11.80;;
23668;SDS011;12011;47.422;15.018;2023-12-20T05:56:56;11.55;;;11.43;;
23668;SDS011;12011;47.422;15.018;2023-12-20T05:59:28;14.63;;;14.01;;
23668;SDS011;12011;47.422;15.018;2023-12-20T06:01:58;13.83;;;13.62;;
23668;SDS011;12011;47.422;15.018;2023-12-20T06:04:27;13.78;;;13.74;;
23668;SDS011;12011;47.422;15.018;2023-12-20T06:06:57;14.03;;;13.97;;
23668;SDS011;12011;47.422;15.018;2023-12-20T06:09:26;14.79;;;14.60;;
23668;SDS011;12011;47.422;15.018;2023-12-20T06:11:56;15.69;;;15.38;;
23668;SDS011;12011;47.422;15.018;2023-12-20T06:14:25;15.74;;;15.39;;
23668;SDS011;12011;47.422;15.018;2023-12-20T06:16:58;13.71;;;13.43;;
23668;SDS011;12011;47.422;15.018;2023-12-20T06:19:27;12.86;;;12.72;;
23668;SDS011;12011;47.422;15.018;2023-12-20T06:21:57;12.36;;;12.27;;
23668;SDS011;12011;47.422;15.018;2023-12-20T06:24:26;12.12;;;12.03;;
23668;SDS011;12011;47.422;15.018;2023-12-20T06:26:56;13.51;;;13.38;;
23668;SDS011;12011;47.422;15.018;2023-12-20T06:29:25;14.71;;;14.55;;
23668;SDS011;12011;47.422;15.018;2023-12-20T06:31:57;16.03;;;15.84;;
23668;SDS011;12011;47.422;15.018;2023-12-20T06:34:27;16.31;;;16.08;;
23668;SDS011;12011;47.422;15.018;2023-12-20T06:36:56;15.05;;;14.85;;
23668;SDS011;12011;47.422;15.018;2023-12-20T06:39:25;14.68;;;14.43;;
23668;SDS011;12011;47.422;15.018;2023-12-20T06:41:56;15.00;;;14.72;;
23668;SDS011;12011;47.422;15.018;2023-12-20T06:44:25;16.13;;;15.77;;
23668;SDS011;12011;47.422;15.018;2023-12-20T06:46:57;14.34;;;14.14;;
23668;SDS011;12011;47.422;15.018;2023-12-20T06:49:27;13.59;;;13.47;;
23668;SDS011;12011;47.422;15.018;2023-12-20T06:51:56;12.62;;;12.56;;
23668;SDS011;12011;47.422;15.018;2023-12-20T07:03:09;11.60;;;11.35;;
23668;SDS011;12011;47.422;15.018;2023-12-20T07:05:39;11.72;;;11.58;;
23668;SDS011;12011;47.422;15.018;2023-12-20T07:08:09;10.57;;;10.46;;
23668;SDS011;12011;47.422;15.018;2023-12-20T07:10:39;10.89;;;10.80;;
23668;SDS011;12011;47.422;15.018;2023-12-20T07:13:09;11.26;;;11.22;;
23668;SDS011;12011;47.422;15.018;2023-12-20T07:15:39;12.75;;;12.66;;
23668;SDS011;12011;47.422;15.018;2023-12-20T07:18:12;20.40;;;20.09;;
23668;SDS011;12011;47.422;15.018;2023-12-20T07:20:41;16.79;;;16.42;;
23668;SDS011;12011;47.422;15.018;2023-12-20T07:23:11;16.03;;;15.74;;
23668;SDS011;12011;47.422;15.018;2023-12-20T07:25:52;15.82;;;15.48;;
23668;SDS011;12011;47.422;15.018;2023-12-20T07:28:39;13.98;;;13.83;;
23668;SDS011;12011;47.422;15.018;2023-12-20T07:31:08;13.17;;;13.00;;
23668;SDS011;12011;47.422;15.018;2023-12-20T07:33:59;14.79;;;14.52;;
23668;SDS011;12011;47.422;15.018;2023-12-20T07:36:29;16.72;;;16.52;;
23668;SDS011;12011;47.422;15.018;2023-12-20T07:39:02;16.45;;;16.25;;
23668;SDS011;12011;47.422;15.018;2023-12-20T07:48:34;18.97;;;18.70;;
23668;SDS011;12011;47.422;15.018;2023-12-20T07:51:07;20.13;;;19.76;;
23668;SDS011;12011;47.422;15.018;2023-12-20T07:53:36;20.74;;;20.41;;
23668;SDS011;12011;47.422;15.018;2023-12-20T07:56:13;20.56;;;20.30;;
23668;SDS011;12011;47.422;15.018;2023-12-20T07:58:43;19.58;;;19.32;;
23668;SDS011;12011;47.422;15.018;2023-12-20T08:01:15;18.67;;;18.53;;
23668;SDS011;12011;47.422;15.018;2023-12-20T08:03:46;17.40;;;17.21;;
23668;SDS011;12011;47.422;15.018;2023-12-20T08:06:19;16.77;;;16.60;;
23668;SDS011;12011;47.422;15.018;2023-12-20T08:08:50;16.44;;;16.34;;
23668;SDS011;12011;47.422;15.018;2023-12-20T08:11:19;16.46;;;16.33;;
23668;SDS011;12011;47.422;15.018;2023-12-20T08:13:49;16.35;;;16.09;;
23668;SDS011;12011;47.422;15.018;2023-12-20T08:16:19;15.54;;;15.42;;
23668;SDS011;12011;47.422;15.018;2023-12-20T08:18:48;15.52;;;15.37;;
23668;SDS011;12011;47.422;15.018;2023-12-20T08:21:21;17.23;;;17.11;;
23668;SDS011;12011;47.422;15.018;2023-12-20T08:23:50;16.81;;;16.68;;
23668;SDS011;12011;47.422;15.018;2023-12-20T08:26:20;16.38;;;16.19;;
23668;SDS011;12011;47.422;15.018;2023-12-20T08:28:49;16.19;;;16.07;;
23668;SDS011;12011;47.422;15.018;2023-12-20T08:31:19;15.60;;;15.51;;
23668;SDS011;12011;47.422;15.018;2023-12-20T08:33:49;16.11;;;15.93;;
23668;SDS011;12011;47.422;15.018;2023-12-20T08:36:21;16.40;;;16.22;;
23668;SDS011;12011;47.422;15.018;2023-12-20T08:38:51;15.62;;;15.42;;
23668;SDS011;12011;47.422;15.018;2023-12-20T08:41:20;16.46;;;16.25;;
23668;SDS011;12011;47.422;15.018;2023-12-20T08:43:50;17.12;;;17.00;;
23668;SDS011;12011;47.422;15.018;2023-12-20T08:46:19;16.14;;;16.04;;
23668;SDS011;12011;47.422;15.018;2023-12-20T08:48:49;17.34;;;17.18;;
23668;SDS011;12011;47.422;15.018;2023-12-20T08:51:21;19.27;;;19.05;;
23668;SDS011;12011;47.422;15.018;2023-12-20T08:53:51;20.02;;;19.79;;
23668;SDS011;12011;47.422;15.018;2023-12-20T08:56:20;20.64;;;20.40;;
23668;SDS011;12011;47.422;15.018;2023-12-20T08:58:50;20.28;;;20.00;;
23668;SDS011;12011;47.422;15.018;2023-12-20T09:01:19;18.15;;;18.00;;
23668;SDS011;12011;47.422;15.018;2023-12-20T09:03:48;16.14;;;16.07;;
23668;SDS011;12011;47.422;15.018;2023-12-20T09:06:21;17.63;;;17.49;;
23668;SDS011;12011;47.422;15.018;2023-12-20T09:08:50;15.57;;;15.45;;
23668;SDS011;12011;47.422;15.018;2023-12-20T09:11:20;14.58;;;14.46;;
23668;SDS011;12011;47.422;15.018;2023-12-20T09:13:49;15.07;;;14.98;;
23668;SDS011;12011;47.422;15.018;2023-12-20T09:16:19;14.45;;;14.28;;
23668;SDS011;12011;47.422;15.018;2023-12-20T09:18:48;13.81;;;13.69;;
23668;SDS011;12011;47.422;15.018;2023-12-20T09:21:18;14.13;;;14.05;;
23668;SDS011;12011;47.422;15.018;2023-12-20T09:23:49;14.91;;;14.78;;
23668;SDS011;12011;47.422;15.018;2023-12-20T09:26:19;14.34;;;14.30;;
23668;SDS011;12011;47.422;15.018;2023-12-20T09:28:49;13.83;;;13.82;;
23668;SDS011;12011;47.422;15.018;2023-12-20T09:31:18;13.24;;;13.18;;
23668;SDS011;12011;47.422;15.018;2023-12-20T09:33:47;12.24;;;12.13;;
23668;SDS011;12011;47.422;15.018;2023-12-20T09:36:17;11.24;;;11.15;;
23668;SDS011;12011;47.422;15.018;2023-12-20T09:38:49;10.90;;;10.80;;
23668;SDS011;12011;47.422;15.018;2023-12-20T09:41:19;11.54;;;11.40;;
23668;SDS011;12011;47.422;15.018;2023-12-20T09:43:49;13.72;;;13.57;;
23668;SDS011;12011;47.422;15.018;2023-12-20T09:46:25;15.19;;;15.00;;
23668;SDS011;12011;47.422;15.018;2023-12-20T09:48:58;16.36;;;16.21;;
23668;SDS011;12011;47.422;15.018;2023-12-20T09:51:28;16.92;;;16.86;;
23668;SDS011;12011;47.422;15.018;2023-12-20T09:54:02;17.30;;;17.18;;
23668;SDS011;12011;47.422;15.018;2023-12-20T09:56:32;15.40;;;15.24;;
23668;SDS011;12011;47.422;15.018;2023-12-20T09:59:02;16.19;;;16.09;;
23668;SDS011;12011;47.422;15.018;2023-12-20T10:01:32;13.56;;;13.44;;
23668;SDS011;12011;47.422;15.018;2023-12-20T10:04:04;15.05;;;15.03;;
23668;SDS011;12011;47.422;15.018;2023-12-20T10:06:37;13.03;;;12.99;;
23668;SDS011;12011;47.422;15.018;2023-12-20T10:09:10;13.03;;;12.99;;
23668;SDS011;12011;47.422;15.018;2023-12-20T10:11:40;12.70;;;12.66;;
23668;SDS011;12011;47.422;15.018;2023-12-20T10:14:10;12.71;;;12.61;;
23668;SDS011;12011;47.422;15.018;2023-12-20T10:16:40;13.72;;;13.68;;
23668;SDS011;12011;47.422;15.018;2023-12-20T10:19:10;13.89;;;13.83;;
23668;SDS011;12011;47.422;15.018;2023-12-20T10:21:39;13.56;;;13.48;;
23668;SDS011;12011;47.422;15.018;2023-12-20T10:24:15;15.15;;;14.97;;
23668;SDS011;12011;47.422;15.018;2023-12-20T10:26:46;14.44;;;14.37;;
23668;SDS011;12011;47.422;15.018;2023-12-20T10:29:15;15.65;;;15.56;;
23668;SDS011;12011;47.422;15.018;2023-12-20T10:31:46;15.24;;;15.12;;
23668;SDS011;12011;47.422;15.018;2023-12-20T10:34:15;15.10;;;14.98;;
23668;SDS011;12011;47.422;15.018;2023-12-20T10:36:45;15.23;;;15.16;;
23668;SDS011;12011;47.422;15.018;2023-12-20T10:39:17;15.21;;;15.16;;
23668;SDS011;12011;47.422;15.018;2023-12-20T10:41:47;14.51;;;14.48;;
23668;SDS011;12011;47.422;15.018;2023-12-20T10:44:17;13.22;;;13.21;;
23668;SDS011;12011;47.422;15.018;2023-12-20T10:46:47;12.89;;;12.85;;
23668;SDS011;12011;47.422;15.018;2023-12-20T10:49:23;12.87;;;12.85;;
23668;SDS011;12011;47.422;15.018;2023-12-20T10:51:55;12.90;;;12.86;;
23668;SDS011;12011;47.422;15.018;2023-12-20T10:54:32;12.28;;;12.23;;
23668;SDS011;12011;47.422;15.018;2023-12-20T10:57:06;12.32;;;12.23;;
23668;SDS011;12011;47.422;15.018;2023-12-20T10:59:37;14.64;;;14.45;;
23668;SDS011;12011;47.422;15.018;2023-12-20T11:02:13;13.28;;;13.13;;
23668;SDS011;12011;47.422;15.018;2023-12-20T11:04:50;13.52;;;13.44;;
23668;SDS011;12011;47.422;15.018;2023-12-20T11:07:29;13.28;;;13.20;;
23668;SDS011;12011;47.422;15.018;2023-12-20T11:10:13;12.67;;;12.58;;
23668;SDS011;12011;47.422;15.018;2023-12-20T11:12:52;12.63;;;12.50;;
23668;SDS011;12011;47.422;15.018;2023-12-20T11:15:30;11.85;;;11.77;;
23668;SDS011;12011;47.422;15.018;2023-12-20T11:17:59;12.62;;;12.50;;
23668;SDS011;12011;47.422;15.018;2023-12-20T11:20:35;11.31;;;11.22;;
23668;SDS011;12011;47.422;15.018;2023-12-20T11:23:06;11.09;;;11.04;;
23668;SDS011;12011;47.422;15.018;2023-12-20T11:25:51;12.77;;;12.72;;
23668;SDS011;12011;47.422;15.018;2023-12-20T11:28:24;14.26;;;14.09;;
23668;SDS011;12011;47.422;15.018;2023-12-20T11:30:56;13.73;;;13.59;;
23668;SDS011;12011;47.422;15.018;2023-12-20T11:33:29;15.52;;;15.44;;
23668;SDS011;12011;47.422;15.018;2023-12-20T11:36:12;14.40;;;14.28;;
23668;SDS011;12011;47.422;15.018;2023-12-20T11:38:53;14.74;;;14.68;;
23668;SDS011;12011;47.422;15.018;2023-12-20T11:41:28;14.15;;;14.08;;
23668;SDS011;12011;47.422;15.018;2023-12-20T11:43:57;13.60;;;13.43;;
23668;SDS011;12011;47.422;15.018;2023-12-20T11:46:28;13.86;;;13.75;;
23668;SDS011;12011;47.422;15.018;2023-12-20T11:48:59;12.28;;;12.26;;
23668;SDS011;12011;47.422;15.018;2023-12-20T11:51:29;14.73;;;14.63;;
23668;SDS011;12011;47.422;15.018;2023-12-20T11:53:59;15.27;;;15.04;;
23668;SDS011;12011;47.422;15.018;2023-12-20T11:56:31;16.20;;;16.08;;
23668;SDS011;12011;47.422;15.018;2023-12-20T11:59:00;22.67;;;22.42;;
23668;SDS011;12011;47.422;15.018;2023-12-20T12:01:31;19.49;;;19.31;;
23668;SDS011;12011;47.422;15.018;2023-12-20T12:04:04;18.39;;;18.19;;
23668;SDS011;12011;47.422;15.018;2023-12-20T12:06:34;16.27;;;16.04;;
23668;SDS011;12011;47.422;15.018;2023-12-20T12:09:03;14.45;;;14.39;;
23668;SDS011;12011;47.422;15.018;2023-12-20T12:11:35;17.16;;;17.08;;
23668;SDS011;12011;47.422;15.018;2023-12-20T12:14:06;18.36;;;18.12;;
23668;SDS011;12011;47.422;15.018;2023-12-20T12:16:36;17.17;;;17.05;;
23668;SDS011;12011;47.422;15.018;2023-12-20T12:19:05;16.64;;;16.49;;
23668;SDS011;12011;47.422;15.018;2023-12-20T12:21:35;16.83;;;16.67;;
23668;SDS011;12011;47.422;15.018;2023-12-20T12:24:08;18.94;;;18.77;;
23668;SDS011;12011;47.422;15.018;2023-12-20T12:26:40;17.60;;;17.47;;
23668;SDS011;12011;47.422;15.018;2023-12-20T12:29:10;17.96;;;17.84;;
23668;SDS011;12011;47.422;15.018;2023-12-20T12:31:39;16.58;;;16.51;;
23668;SDS011;12011;47.422;15.018;2023-12-20T12:34:09;16.40;;;16.33;;
23668;SDS011;12011;47.422;15.018;2023-12-20T12:36:39;17.10;;;16.94;;
23668;SDS011;12011;47.422;15.018;2023-12-20T12:39:11;17.31;;;17.24;;
23668;SDS011;12011;47.422;15.018;2023-12-20T12:41:44;18.03;;;17.89;;
23668;SDS011;12011;47.422;15.018;2023-12-20T12:44:14;17.23;;;17.05;;
23668;SDS011;12011;47.422;15.018;2023-12-20T12:46:43;16.95;;;16.89;;
23668;SDS011;12011;47.422;15.018;2023-12-20T12:49:15;15.40;;;15.35;;
23668;SDS011;12011;47.422;15.018;2023-12-20T12:51:45;14.49;;;14.36;;
23668;SDS011;12011;47.422;15.018;2023-12-20T12:54:14;15.88;;;15.76;;
23668;SDS011;12011;47.422;15.018;2023-12-20T12:56:47;16.39;;;16.28;;
23668;SDS011;12011;47.422;15.018;2023-12-20T12:59:18;16.84;;;16.79;;
23668;SDS011;12011;47.422;15.018;2023-12-20T13:01:48;16.70;;;16.57;;
23668;SDS011;12011;47.422;15.018;2023-12-20T13:04:17;16.16;;;16.06;;
23668;SDS011;12011;47.422;15.018;2023-12-20T13:06:46;17.00;;;16.88;;
23668;SDS011;12011;47.422;15.018;2023-12-20T13:09:17;17.53;;;17.37;;
23668;SDS011;12011;47.422;15.018;2023-12-20T13:11:49;16.71;;;16.58;;
23668;SDS011;12011;47.422;15.018;2023-12-20T13:14:19;16.80;;;16.71;;
23668;SDS011;12011;47.422;15.018;2023-12-20T13:16:48;16.18;;;16.11;;
23668;SDS011;12011;47.422;15.018;2023-12-20T13:19:17;16.85;;;16.73;;
23668;SDS011;12011;47.422;15.018;2023-12-20T13:21:47;16.17;;;16.02;;
23668;SDS011;12011;47.422;15.018;2023-12-20T13:24:16;15.86;;;15.77;;
23668;SDS011;12011;47.422;15.018;2023-12-20T13:26:49;15.10;;;15.05;;
23668;SDS011;12011;47.422;15.018;2023-12-20T13:29:18;14.92;;;14.86;;
23668;SDS011;12011;47.422;15.018;2023-12-20T13:31:48;17.72;;;17.65;;
23668;SDS011;12011;47.422;15.018;2023-12-20T13:34:18;19.36;;;19.10;;
23668;SDS011;12011;47.422;15.018;2023-12-20T13:36:48;19.09;;;18.87;;
23668;SDS011;12011;47.422;15.018;2023-12-20T13:39:17;17.65;;;17.50;;
23668;SDS011;12011;47.422;15.018;2023-12-20T13:41:49;17.70;;;17.58;;
23668;SDS011;12011;47.422;15.018;2023-12-20T13:44:19;17.81;;;17.67;;
23668;SDS011;12011;47.422;15.018;2023-12-20T13:46:48;17.99;;;17.90;;
23668;SDS011;12011;47.422;15.018;2023-12-20T13:49:18;18.10;;;18.03;;
23668;SDS011;12011;47.422;15.018;2023-12-20T13:51:51;17.62;;;17.50;;
23668;SDS011;12011;47.422;15.018;2023-12-20T13:54:20;18.65;;;18.57;;
23668;SDS011;12011;47.422;15.018;2023-12-20T13:56:52;16.75;;;16.63;;
23668;SDS011;12011;47.422;15.018;2023-12-20T13:59:23;17.90;;;17.73;;
23668;SDS011;12011;47.422;15.018;2023-12-20T14:01:52;17.65;;;17.50;;
23668;SDS011;12011;47.422;15.018;2023-12-20T14:04:22;17.90;;;17.76;;
23668;SDS011;12011;47.422;15.018;2023-12-20T14:06:52;16.43;;;16.28;;
23668;SDS011;12011;47.422;15.018;2023-12-20T14:09:21;16.45;;;16.28;;
23668;SDS011;12011;47.422;15.018;2023-12-20T14:11:53;17.96;;;17.76;;
23668;SDS011;12011;47.422;15.018;2023-12-20T14:14:23;18.52;;;18.27;;
23668;SDS011;12011;47.422;15.018;2023-12-20T14:16:52;17.96;;;17.75;;
23668;SDS011;12011;47.422;15.018;2023-12-20T14:19:21;17.18;;;17.07;;
23668;SDS011;12011;47.422;15.018;2023-12-20T14:21:51;21.40;;;21.20;;
23668;SDS011;12011;47.422;15.018;2023-12-20T14:24:20;21.37;;;21.10;;
23668;SDS011;12011;47.422;15.018;2023-12-20T14:26:53;19.68;;;19.53;;
23668;SDS011;12011;47.422;15.018;2023-12-20T14:29:24;20.73;;;20.59;;
23668;SDS011;12011;47.422;15.018;2023-12-20T14:31:53;20.06;;;19.92;;
23668;SDS011;12011;47.422;15.018;2023-12-20T14:34:22;20.14;;;19.94;;
23668;SDS011;12011;47.422;15.018;2023-12-20T14:36:52;19.84;;;19.66;;
23668;SDS011;12011;47.422;15.018;2023-12-20T14:39:21;21.21;;;20.94;;
23668;SDS011;12011;47.422;15.018;2023-12-20T14:41:53;28.31;;;27.65;;
23668;SDS011;12011;47.422;15.018;2023-12-20T14:44:23;26.81;;;26.44;;
23668;SDS011;12011;47.422;15.018;2023-12-20T14:46:52;24.46;;;24.06;;
23668;SDS011;12011;47.422;15.018;2023-12-20T14:49:22;23.46;;;23.10;;
23668;SDS011;12011;47.422;15.018;2023-12-20T14:51:56;21.38;;;21.11;;
23668;SDS011;12011;47.422;15.018;2023-12-20T14:54:26;21.06;;;20.88;;
23668;SDS011;12011;47.422;15.018;2023-12-20T14:59:55;17.87;;;17.64;;
23668;SDS011;12011;47.422;15.018;2023-12-20T15:05:39;10.89;;;10.86;;
23668;SDS011;12011;47.422;15.018;2023-12-20T15:08:28;7.61;;;7.59;;
23668;SDS011;12011;47.422;15.018;2023-12-20T15:10:58;6.37;;;6.33;;
23668;SDS011;12011;47.422;15.018;2023-12-20T15:16:34;6.70;;;6.64;;
23668;SDS011;12011;47.422;15.018;2023-12-20T16:00:14;26.36;;;26.07;;
23668;SDS011;12011;47.422;15.018;2023-12-20T16:02:45;26.19;;;25.93;;
23668;SDS011;12011;47.422;15.018;2023-12-20T16:05:15;23.57;;;23.31;;
23668;SDS011;12011;47.422;15.018;2023-12-20T16:07:44;24.29;;;23.87;;
23668;SDS011;12011;47.422;15.018;2023-12-20T16:10:13;22.70;;;22.37;;
23668;SDS011;12011;47.422;15.018;2023-12-20T16:12:43;21.31;;;21.14;;
23668;SDS011;12011;47.422;15.018;2023-12-20T16:15:10;26.46;;;26.11;;
23668;SDS011;12011;47.422;15.018;2023-12-20T16:17:43;26.51;;;26.17;;
23668;SDS011;12011;47.422;15.018;2023-12-20T16:20:12;24.76;;;24.37;;
23668;SDS011;12011;47.422;15.018;2023-12-20T16:22:42;22.38;;;22.11;;
23668;SDS011;12011;47.422;15.018;2023-12-20T16:25:11;23.07;;;22.79;;
23668;SDS011;12011;47.422;15.018;2023-12-20T16:27:41;21.66;;;21.41;;
23668;SDS011;12011;47.422;15.018;2023-12-20T16:30:16;22.77;;;22.44;;
23668;SDS011;12011;47.422;15.018;2023-12-20T16:32:45;25.17;;;25.04;;
23668;SDS011;12011;47.422;15.018;2023-12-20T16:35:16;22.33;;;22.18;;
23668;SDS011;12011;47.422;15.018;2023-12-20T16:37:45;24.14;;;23.91;;
23668;SDS011;12011;47.422;15.018;2023-12-20T16:40:15;25.36;;;25.21;;
23668;SDS011;12011;47.422;15.018;2023-12-20T16:42:49;23.16;;;22.91;;
23668;SDS011;12011;47.422;15.018;2023-12-20T16:45:24;18.16;;;17.92;;
23668;SDS011;12011;47.422;15.018;2023-12-20T16:47:53;19.09;;;18.86;;
23668;SDS011;12011;47.422;15.018;2023-12-20T16:50:22;25.13;;;24.79;;
23668;SDS011;12011;47.422;15.018;2023-12-20T16:52:52;24.32;;;24.02;;
23668;SDS011;12011;47.422;15.018;2023-12-20T16:55:21;22.35;;;22.16;;
23668;SDS011;12011;47.422;15.018;2023-12-20T16:57:51;20.41;;;20.26;;
23668;SDS011;12011;47.422;15.018;2023-12-20T17:00:20;13.87;;;13.68;;
23668;SDS011;12011;47.422;15.018;2023-12-20T17:02:52;12.47;;;12.38;;
23668;SDS011;12011;47.422;15.018;2023-12-20T17:05:22;10.71;;;10.49;;
23668;SDS011;12011;47.422;15.018;2023-12-20T17:07:51;16.99;;;16.70;;
23668;SDS011;12011;47.422;15.018;2023-12-20T17:10:21;16.56;;;16.37;;
23668;SDS011;12011;47.422;15.018;2023-12-20T17:12:50;16.44;;;16.22;;
23668;SDS011;12011;47.422;15.018;2023-12-20T17:15:20;16.10;;;15.92;;
23668;SDS011;12011;47.422;15.018;2023-12-20T17:17:52;15.52;;;15.23;;
23668;SDS011;12011;47.422;15.018;2023-12-20T17:20:21;14.86;;;14.63;;
23668;SDS011;12011;47.422;15.018;2023-12-20T17:22:51;22.21;;;21.87;;
23668;SDS011;12011;47.422;15.018;2023-12-20T17:25:21;21.92;;;21.61;;
23668;SDS011;12011;47.422;15.018;2023-12-20T17:27:50;21.02;;;20.71;;
23668;SDS011;12011;47.422;15.018;2023-12-20T17:30:21;20.20;;;19.98;;
23668;SDS011;12011;47.422;15.018;2023-12-20T17:32:53;14.79;;;14.61;;
23668;SDS011;12011;47.422;15.018;2023-12-20T17:35:23;15.15;;;14.90;;
23668;SDS011;12011;47.422;15.018;2023-12-20T17:37:53;14.48;;;14.22;;
23668;SDS011;12011;47.422;15.018;2023-12-20T17:40:24;13.62;;;13.38;;